Aeroporto :







RITROVATECI SU...

 
LOGIN :

Iscrizione | Disclaimer

   EN    FR    IT 

 









Sommario :    VFR   VFR Marginale   IFR   IFR Intensivo   IFR Molto Intensivo
Visibilità : 
Base nubi : 
>= 8 km
>= 3000ft
5 / 8 km
1000 / 3000 ft
1500m / 5 km
500 / 1000 ft
800 / 1500m
200 / 500 ft
< 800m
< 200 ft
Simboli :   Temporali  Nebbia  Neve Forte  Precipitazioni Forti  Vento > 20 kt






- Altitudine del aeroporto : 2042 ft
- Codice IATA : BRM


SVBM - Barquisimeto International

ULTIMO METAR :
  • 300702Z AUTO 03005KT NCD 17/18 Q1016

METARs OBSOLETI :
  • 300602Z AUTO 04006KT NCD 17/19 Q1016
  • 300502Z AUTO 04009KT NCD 29/18 Q1017

TAF TAF SVBM
Valido dal 29 a 18 ore il 30 a 18 ore UTC


291541Z 2918/3018 08008KT 9999 SCT013 TX33/2918Z TN22/3008Z
BECMG 2920/3000 10009KT FEW013CB SCT020



MetMap, La meteo Aeronautica in un colpo d'occhio ! - Copyright ORBIFLY Dicembre 2007 - Disclaimer

ORBIFLY MET'MAP TEAM :

Programmazione e sviluppo : Alexandra Zaïnal
Concezione : Baudouin d'Aumeries
Aiuto per la programmazione : Marc-Olivier Méhu
Supporto tecnico e logistico : Manuel Goepfert
Aiuto per la traduzione : Arnaldo La Scala

Contatto : metmap@orbifly.com




FONTI E CREDITI :

   NOAA